sensor_id;sensor_type;location;lat;lon;timestamp;P1;durP1;ratioP1;P2;durP2;ratioP2
27305;SDS011;14792;50.886;6.468;2023-05-07T00:02:24;19.92;;;7.10;;
27305;SDS011;14792;50.886;6.468;2023-05-07T00:05:25;24.02;;;8.48;;
27305;SDS011;14792;50.886;6.468;2023-05-07T00:08:27;23.67;;;7.92;;
27305;SDS011;14792;50.886;6.468;2023-05-07T00:11:29;23.38;;;8.85;;
27305;SDS011;14792;50.886;6.468;2023-05-07T00:14:30;24.07;;;8.45;;
27305;SDS011;14792;50.886;6.468;2023-05-07T00:17:32;21.70;;;8.68;;
27305;SDS011;14792;50.886;6.468;2023-05-07T00:20:33;26.50;;;9.13;;
27305;SDS011;14792;50.886;6.468;2023-05-07T00:23:35;22.02;;;8.30;;
27305;SDS011;14792;50.886;6.468;2023-05-07T00:26:37;26.23;;;8.28;;
27305;SDS011;14792;50.886;6.468;2023-05-07T00:29:38;21.82;;;8.03;;
27305;SDS011;14792;50.886;6.468;2023-05-07T00:32:40;21.85;;;8.38;;
27305;SDS011;14792;50.886;6.468;2023-05-07T00:35:42;16.48;;;7.33;;
27305;SDS011;14792;50.886;6.468;2023-05-07T00:38:43;13.88;;;6.60;;
27305;SDS011;14792;50.886;6.468;2023-05-07T00:41:44;15.20;;;5.95;;
27305;SDS011;14792;50.886;6.468;2023-05-07T00:44:46;15.25;;;5.80;;
27305;SDS011;14792;50.886;6.468;2023-05-07T00:47:48;10.75;;;5.22;;
27305;SDS011;14792;50.886;6.468;2023-05-07T00:50:49;15.78;;;5.33;;
27305;SDS011;14792;50.886;6.468;2023-05-07T00:53:51;20.77;;;5.33;;
27305;SDS011;14792;50.886;6.468;2023-05-07T00:56:53;17.67;;;5.37;;
27305;SDS011;14792;50.886;6.468;2023-05-07T00:59:54;20.35;;;5.05;;
27305;SDS011;14792;50.886;6.468;2023-05-07T01:02:56;13.00;;;5.67;;
27305;SDS011;14792;50.886;6.468;2023-05-07T01:05:57;11.85;;;5.12;;
27305;SDS011;14792;50.886;6.468;2023-05-07T01:08:59;14.13;;;4.65;;
27305;SDS011;14792;50.886;6.468;2023-05-07T01:12:00;11.03;;;4.30;;
27305;SDS011;14792;50.886;6.468;2023-05-07T01:15:02;10.80;;;4.22;;
27305;SDS011;14792;50.886;6.468;2023-05-07T01:18:04;10.95;;;4.50;;
27305;SDS011;14792;50.886;6.468;2023-05-07T01:21:05;13.90;;;4.80;;
27305;SDS011;14792;50.886;6.468;2023-05-07T01:24:07;12.82;;;4.90;;
27305;SDS011;14792;50.886;6.468;2023-05-07T01:27:08;11.80;;;6.17;;
27305;SDS011;14792;50.886;6.468;2023-05-07T01:30:10;10.40;;;4.80;;
27305;SDS011;14792;50.886;6.468;2023-05-07T01:33:13;10.93;;;5.05;;
27305;SDS011;14792;50.886;6.468;2023-05-07T01:36:13;12.93;;;5.65;;
27305;SDS011;14792;50.886;6.468;2023-05-07T01:39:15;12.07;;;5.35;;
27305;SDS011;14792;50.886;6.468;2023-05-07T01:42:16;14.05;;;6.28;;
27305;SDS011;14792;50.886;6.468;2023-05-07T01:45:18;15.78;;;5.60;;
27305;SDS011;14792;50.886;6.468;2023-05-07T01:48:19;17.30;;;6.33;;
27305;SDS011;14792;50.886;6.468;2023-05-07T01:51:21;18.48;;;6.35;;
27305;SDS011;14792;50.886;6.468;2023-05-07T01:54:26;15.13;;;6.47;;
27305;SDS011;14792;50.886;6.468;2023-05-07T01:57:30;25.17;;;6.22;;
27305;SDS011;14792;50.886;6.468;2023-05-07T02:00:31;26.82;;;6.08;;
27305;SDS011;14792;50.886;6.468;2023-05-07T02:03:33;26.27;;;6.37;;
27305;SDS011;14792;50.886;6.468;2023-05-07T02:06:35;24.60;;;7.22;;
27305;SDS011;14792;50.886;6.468;2023-05-07T02:09:37;32.00;;;6.62;;
27305;SDS011;14792;50.886;6.468;2023-05-07T02:12:38;26.52;;;6.80;;
27305;SDS011;14792;50.886;6.468;2023-05-07T02:15:39;21.62;;;7.20;;
27305;SDS011;14792;50.886;6.468;2023-05-07T02:18:41;27.98;;;6.58;;
27305;SDS011;14792;50.886;6.468;2023-05-07T02:21:43;20.50;;;6.45;;
27305;SDS011;14792;50.886;6.468;2023-05-07T02:24:44;10.78;;;5.25;;
27305;SDS011;14792;50.886;6.468;2023-05-07T02:27:46;16.12;;;5.72;;
27305;SDS011;14792;50.886;6.468;2023-05-07T02:30:47;15.65;;;6.40;;
27305;SDS011;14792;50.886;6.468;2023-05-07T02:33:49;24.37;;;6.40;;
27305;SDS011;14792;50.886;6.468;2023-05-07T02:36:51;18.90;;;6.00;;
27305;SDS011;14792;50.886;6.468;2023-05-07T02:39:52;21.33;;;6.50;;
27305;SDS011;14792;50.886;6.468;2023-05-07T02:42:54;16.62;;;5.87;;
27305;SDS011;14792;50.886;6.468;2023-05-07T02:46:05;21.75;;;6.08;;
27305;SDS011;14792;50.886;6.468;2023-05-07T02:49:06;11.97;;;5.08;;
27305;SDS011;14792;50.886;6.468;2023-05-07T02:52:07;18.62;;;5.87;;
27305;SDS011;14792;50.886;6.468;2023-05-07T02:55:09;14.85;;;5.72;;
27305;SDS011;14792;50.886;6.468;2023-05-07T02:58:11;22.17;;;6.25;;
27305;SDS011;14792;50.886;6.468;2023-05-07T03:01:13;20.15;;;6.95;;
27305;SDS011;14792;50.886;6.468;2023-05-07T03:04:14;18.45;;;7.90;;
27305;SDS011;14792;50.886;6.468;2023-05-07T03:07:16;13.18;;;7.45;;
27305;SDS011;14792;50.886;6.468;2023-05-07T03:10:18;12.88;;;7.67;;
27305;SDS011;14792;50.886;6.468;2023-05-07T03:13:20;11.10;;;7.70;;
27305;SDS011;14792;50.886;6.468;2023-05-07T03:16:22;14.78;;;8.30;;
27305;SDS011;14792;50.886;6.468;2023-05-07T03:19:23;20.77;;;8.40;;
27305;SDS011;14792;50.886;6.468;2023-05-07T03:22:25;15.63;;;8.68;;
27305;SDS011;14792;50.886;6.468;2023-05-07T03:25:27;15.03;;;8.00;;
27305;SDS011;14792;50.886;6.468;2023-05-07T03:28:28;19.87;;;8.58;;
27305;SDS011;14792;50.886;6.468;2023-05-07T03:31:29;17.12;;;7.85;;
27305;SDS011;14792;50.886;6.468;2023-05-07T03:34:31;23.77;;;8.90;;
27305;SDS011;14792;50.886;6.468;2023-05-07T03:37:33;16.32;;;9.18;;
27305;SDS011;14792;50.886;6.468;2023-05-07T03:40:34;14.10;;;8.10;;
27305;SDS011;14792;50.886;6.468;2023-05-07T03:43:37;23.27;;;8.78;;
27305;SDS011;14792;50.886;6.468;2023-05-07T03:46:38;18.12;;;9.38;;
27305;SDS011;14792;50.886;6.468;2023-05-07T03:49:40;11.83;;;8.90;;
27305;SDS011;14792;50.886;6.468;2023-05-07T03:52:41;20.62;;;9.45;;
27305;SDS011;14792;50.886;6.468;2023-05-07T03:55:43;18.67;;;10.30;;
27305;SDS011;14792;50.886;6.468;2023-05-07T03:58:45;17.75;;;10.70;;
27305;SDS011;14792;50.886;6.468;2023-05-07T04:01:46;20.65;;;11.12;;
27305;SDS011;14792;50.886;6.468;2023-05-07T04:04:48;22.02;;;9.93;;
27305;SDS011;14792;50.886;6.468;2023-05-07T04:07:50;22.95;;;10.55;;
27305;SDS011;14792;50.886;6.468;2023-05-07T04:10:56;18.05;;;9.78;;
27305;SDS011;14792;50.886;6.468;2023-05-07T04:13:57;22.62;;;10.70;;
27305;SDS011;14792;50.886;6.468;2023-05-07T04:16:59;26.97;;;11.22;;
27305;SDS011;14792;50.886;6.468;2023-05-07T04:20:00;19.55;;;10.40;;
27305;SDS011;14792;50.886;6.468;2023-05-07T04:23:02;28.50;;;11.20;;
27305;SDS011;14792;50.886;6.468;2023-05-07T04:26:04;28.98;;;12.93;;
27305;SDS011;14792;50.886;6.468;2023-05-07T04:29:06;28.50;;;14.15;;
27305;SDS011;14792;50.886;6.468;2023-05-07T04:32:08;33.78;;;16.57;;
27305;SDS011;14792;50.886;6.468;2023-05-07T04:35:09;39.60;;;16.60;;
27305;SDS011;14792;50.886;6.468;2023-05-07T04:38:11;40.05;;;17.05;;
27305;SDS011;14792;50.886;6.468;2023-05-07T04:41:13;35.17;;;17.92;;
27305;SDS011;14792;50.886;6.468;2023-05-07T04:44:14;49.63;;;20.02;;
27305;SDS011;14792;50.886;6.468;2023-05-07T04:47:16;45.33;;;20.05;;
27305;SDS011;14792;50.886;6.468;2023-05-07T04:50:18;44.77;;;21.55;;
27305;SDS011;14792;50.886;6.468;2023-05-07T04:53:20;48.98;;;23.18;;
27305;SDS011;14792;50.886;6.468;2023-05-07T04:56:21;43.08;;;22.10;;
27305;SDS011;14792;50.886;6.468;2023-05-07T04:59:23;32.03;;;20.27;;
27305;SDS011;14792;50.886;6.468;2023-05-07T05:02:25;35.38;;;19.65;;
27305;SDS011;14792;50.886;6.468;2023-05-07T05:05:26;31.73;;;19.25;;
27305;SDS011;14792;50.886;6.468;2023-05-07T05:08:28;36.03;;;19.17;;
27305;SDS011;14792;50.886;6.468;2023-05-07T05:11:29;32.15;;;17.57;;
27305;SDS011;14792;50.886;6.468;2023-05-07T05:14:31;32.70;;;18.87;;
27305;SDS011;14792;50.886;6.468;2023-05-07T05:17:34;37.63;;;19.82;;
27305;SDS011;14792;50.886;6.468;2023-05-07T05:20:36;41.33;;;20.50;;
27305;SDS011;14792;50.886;6.468;2023-05-07T05:23:37;37.98;;;18.67;;
27305;SDS011;14792;50.886;6.468;2023-05-07T05:26:39;37.05;;;19.48;;
27305;SDS011;14792;50.886;6.468;2023-05-07T05:29:42;36.20;;;18.62;;
27305;SDS011;14792;50.886;6.468;2023-05-07T05:32:44;38.45;;;18.42;;
27305;SDS011;14792;50.886;6.468;2023-05-07T05:35:45;37.90;;;18.62;;
27305;SDS011;14792;50.886;6.468;2023-05-07T05:38:47;31.80;;;17.37;;
27305;SDS011;14792;50.886;6.468;2023-05-07T05:41:48;36.80;;;18.10;;
27305;SDS011;14792;50.886;6.468;2023-05-07T05:44:50;35.68;;;18.67;;
27305;SDS011;14792;50.886;6.468;2023-05-07T05:47:53;34.18;;;17.23;;
27305;SDS011;14792;50.886;6.468;2023-05-07T05:50:54;27.35;;;14.15;;
27305;SDS011;14792;50.886;6.468;2023-05-07T05:53:56;21.60;;;12.93;;
27305;SDS011;14792;50.886;6.468;2023-05-07T05:56:58;20.15;;;11.55;;
27305;SDS011;14792;50.886;6.468;2023-05-07T06:00:00;17.40;;;10.55;;
27305;SDS011;14792;50.886;6.468;2023-05-07T06:03:01;16.62;;;9.95;;
27305;SDS011;14792;50.886;6.468;2023-05-07T06:06:03;19.50;;;10.25;;
27305;SDS011;14792;50.886;6.468;2023-05-07T06:09:04;16.62;;;10.65;;
27305;SDS011;14792;50.886;6.468;2023-05-07T06:12:06;17.75;;;10.23;;
27305;SDS011;14792;50.886;6.468;2023-05-07T06:15:08;15.63;;;10.10;;
27305;SDS011;14792;50.886;6.468;2023-05-07T06:18:10;17.82;;;10.58;;
27305;SDS011;14792;50.886;6.468;2023-05-07T06:21:11;18.20;;;10.45;;
27305;SDS011;14792;50.886;6.468;2023-05-07T06:24:13;18.87;;;10.35;;
27305;SDS011;14792;50.886;6.468;2023-05-07T06:27:14;15.93;;;10.08;;
27305;SDS011;14792;50.886;6.468;2023-05-07T06:30:16;26.97;;;11.73;;
27305;SDS011;14792;50.886;6.468;2023-05-07T06:33:18;25.97;;;10.75;;
27305;SDS011;14792;50.886;6.468;2023-05-07T06:36:19;19.30;;;10.63;;
27305;SDS011;14792;50.886;6.468;2023-05-07T06:39:21;19.85;;;10.53;;
27305;SDS011;14792;50.886;6.468;2023-05-07T06:42:22;18.50;;;11.12;;
27305;SDS011;14792;50.886;6.468;2023-05-07T06:45:24;25.55;;;10.88;;
27305;SDS011;14792;50.886;6.468;2023-05-07T06:48:26;22.17;;;10.08;;
27305;SDS011;14792;50.886;6.468;2023-05-07T06:51:28;19.07;;;10.32;;
27305;SDS011;14792;50.886;6.468;2023-05-07T06:54:30;19.92;;;9.48;;
27305;SDS011;14792;50.886;6.468;2023-05-07T06:57:31;18.23;;;9.63;;
27305;SDS011;14792;50.886;6.468;2023-05-07T07:00:33;20.52;;;8.85;;
27305;SDS011;14792;50.886;6.468;2023-05-07T07:03:35;15.63;;;8.65;;
27305;SDS011;14792;50.886;6.468;2023-05-07T07:06:36;15.28;;;8.65;;
27305;SDS011;14792;50.886;6.468;2023-05-07T07:09:38;20.08;;;9.43;;
27305;SDS011;14792;50.886;6.468;2023-05-07T07:12:39;22.48;;;8.75;;
27305;SDS011;14792;50.886;6.468;2023-05-07T07:15:41;24.15;;;8.83;;
27305;SDS011;14792;50.886;6.468;2023-05-07T07:18:43;15.85;;;8.55;;
27305;SDS011;14792;50.886;6.468;2023-05-07T07:21:44;19.42;;;8.25;;
27305;SDS011;14792;50.886;6.468;2023-05-07T07:24:46;15.70;;;8.35;;
27305;SDS011;14792;50.886;6.468;2023-05-07T07:27:48;20.27;;;8.88;;
27305;SDS011;14792;50.886;6.468;2023-05-07T07:30:49;17.92;;;7.40;;
27305;SDS011;14792;50.886;6.468;2023-05-07T07:33:51;14.70;;;7.87;;
27305;SDS011;14792;50.886;6.468;2023-05-07T07:36:53;17.90;;;8.25;;
27305;SDS011;14792;50.886;6.468;2023-05-07T07:39:54;15.85;;;7.72;;
27305;SDS011;14792;50.886;6.468;2023-05-07T07:42:56;16.70;;;6.67;;
27305;SDS011;14792;50.886;6.468;2023-05-07T07:48:59;16.02;;;6.37;;
27305;SDS011;14792;50.886;6.468;2023-05-07T07:52:01;13.25;;;6.70;;
27305;SDS011;14792;50.886;6.468;2023-05-07T07:55:03;15.32;;;6.08;;
27305;SDS011;14792;50.886;6.468;2023-05-07T07:58:05;11.78;;;5.83;;
27305;SDS011;14792;50.886;6.468;2023-05-07T08:01:07;13.28;;;6.03;;
27305;SDS011;14792;50.886;6.468;2023-05-07T08:04:08;16.82;;;5.47;;
27305;SDS011;14792;50.886;6.468;2023-05-07T08:07:10;19.20;;;5.75;;
27305;SDS011;14792;50.886;6.468;2023-05-07T08:10:12;8.95;;;5.40;;
27305;SDS011;14792;50.886;6.468;2023-05-07T08:13:14;14.28;;;5.80;;
27305;SDS011;14792;50.886;6.468;2023-05-07T08:16:16;17.48;;;5.95;;
27305;SDS011;14792;50.886;6.468;2023-05-07T08:19:17;13.62;;;5.15;;
27305;SDS011;14792;50.886;6.468;2023-05-07T08:22:19;12.35;;;4.72;;
27305;SDS011;14792;50.886;6.468;2023-05-07T08:25:21;11.08;;;5.22;;
27305;SDS011;14792;50.886;6.468;2023-05-07T08:28:22;9.68;;;5.10;;
27305;SDS011;14792;50.886;6.468;2023-05-07T08:31:24;10.82;;;5.08;;
27305;SDS011;14792;50.886;6.468;2023-05-07T08:34:25;12.05;;;4.95;;
27305;SDS011;14792;50.886;6.468;2023-05-07T08:37:27;12.73;;;3.90;;
27305;SDS011;14792;50.886;6.468;2023-05-07T08:40:29;9.18;;;4.45;;
27305;SDS011;14792;50.886;6.468;2023-05-07T08:43:30;11.50;;;4.05;;
27305;SDS011;14792;50.886;6.468;2023-05-07T08:46:32;7.95;;;3.87;;
27305;SDS011;14792;50.886;6.468;2023-05-07T08:49:33;15.93;;;4.17;;
27305;SDS011;14792;50.886;6.468;2023-05-07T08:52:35;9.58;;;4.30;;
27305;SDS011;14792;50.886;6.468;2023-05-07T08:55:37;10.32;;;4.00;;
27305;SDS011;14792;50.886;6.468;2023-05-07T08:58:38;12.23;;;3.95;;
27305;SDS011;14792;50.886;6.468;2023-05-07T09:01:40;9.50;;;3.62;;
27305;SDS011;14792;50.886;6.468;2023-05-07T09:04:41;12.40;;;3.92;;
27305;SDS011;14792;50.886;6.468;2023-05-07T09:07:43;10.88;;;3.85;;
27305;SDS011;14792;50.886;6.468;2023-05-07T09:10:45;11.05;;;3.25;;
27305;SDS011;14792;50.886;6.468;2023-05-07T09:13:46;11.20;;;3.30;;
27305;SDS011;14792;50.886;6.468;2023-05-07T09:16:48;5.83;;;3.12;;
27305;SDS011;14792;50.886;6.468;2023-05-07T09:19:49;7.53;;;2.62;;
27305;SDS011;14792;50.886;6.468;2023-05-07T09:22:51;8.63;;;2.80;;
27305;SDS011;14792;50.886;6.468;2023-05-07T09:25:53;4.60;;;2.10;;
27305;SDS011;14792;50.886;6.468;2023-05-07T09:28:54;9.00;;;2.22;;
27305;SDS011;14792;50.886;6.468;2023-05-07T09:31:56;5.20;;;2.40;;
27305;SDS011;14792;50.886;6.468;2023-05-07T09:34:58;6.00;;;2.35;;
27305;SDS011;14792;50.886;6.468;2023-05-07T09:38:00;9.03;;;2.52;;
27305;SDS011;14792;50.886;6.468;2023-05-07T09:41:05;8.55;;;2.25;;
27305;SDS011;14792;50.886;6.468;2023-05-07T09:44:08;8.53;;;2.72;;
27305;SDS011;14792;50.886;6.468;2023-05-07T09:47:10;12.93;;;3.55;;
27305;SDS011;14792;50.886;6.468;2023-05-07T09:50:11;7.65;;;2.40;;
27305;SDS011;14792;50.886;6.468;2023-05-07T09:53:13;5.80;;;2.30;;
27305;SDS011;14792;50.886;6.468;2023-05-07T09:56:14;6.25;;;2.35;;
27305;SDS011;14792;50.886;6.468;2023-05-07T09:59:16;6.87;;;2.30;;
27305;SDS011;14792;50.886;6.468;2023-05-07T10:02:17;3.60;;;2.00;;
27305;SDS011;14792;50.886;6.468;2023-05-07T10:05:19;9.60;;;2.17;;
27305;SDS011;14792;50.886;6.468;2023-05-07T10:08:21;11.93;;;2.65;;
27305;SDS011;14792;50.886;6.468;2023-05-07T10:11:22;8.35;;;2.55;;
27305;SDS011;14792;50.886;6.468;2023-05-07T10:14:24;11.00;;;2.45;;
27305;SDS011;14792;50.886;6.468;2023-05-07T10:17:26;5.55;;;2.08;;
27305;SDS011;14792;50.886;6.468;2023-05-07T10:20:27;6.15;;;2.17;;
27305;SDS011;14792;50.886;6.468;2023-05-07T10:23:29;10.88;;;2.47;;
27305;SDS011;14792;50.886;6.468;2023-05-07T10:26:30;10.08;;;2.65;;
27305;SDS011;14792;50.886;6.468;2023-05-07T10:32:45;6.95;;;1.67;;
27305;SDS011;14792;50.886;6.468;2023-05-07T10:35:47;5.60;;;2.50;;
27305;SDS011;14792;50.886;6.468;2023-05-07T10:38:49;15.00;;;2.95;;
27305;SDS011;14792;50.886;6.468;2023-05-07T10:41:51;6.58;;;1.98;;
27305;SDS011;14792;50.886;6.468;2023-05-07T10:44:52;8.13;;;2.00;;
27305;SDS011;14792;50.886;6.468;2023-05-07T10:51:20;7.62;;;1.70;;
27305;SDS011;14792;50.886;6.468;2023-05-07T10:54:21;7.97;;;2.33;;
27305;SDS011;14792;50.886;6.468;2023-05-07T11:04:12;5.92;;;1.72;;
27305;SDS011;14792;50.886;6.468;2023-05-07T11:06:40;10.08;;;2.77;;
27305;SDS011;14792;50.886;6.468;2023-05-07T11:12:57;7.45;;;2.00;;
27305;SDS011;14792;50.886;6.468;2023-05-07T11:15:59;7.90;;;1.92;;
27305;SDS011;14792;50.886;6.468;2023-05-07T11:19:01;4.90;;;1.77;;
27305;SDS011;14792;50.886;6.468;2023-05-07T11:22:02;7.00;;;2.00;;
27305;SDS011;14792;50.886;6.468;2023-05-07T11:25:04;7.20;;;1.85;;
27305;SDS011;14792;50.886;6.468;2023-05-07T11:28:08;10.78;;;2.27;;
27305;SDS011;14792;50.886;6.468;2023-05-07T11:31:10;7.87;;;1.60;;
27305;SDS011;14792;50.886;6.468;2023-05-07T11:34:12;4.15;;;2.08;;
27305;SDS011;14792;50.886;6.468;2023-05-07T11:37:16;7.58;;;1.90;;
27305;SDS011;14792;50.886;6.468;2023-05-07T11:40:15;4.08;;;1.75;;
27305;SDS011;14792;50.886;6.468;2023-05-07T11:43:16;4.28;;;1.70;;
27305;SDS011;14792;50.886;6.468;2023-05-07T11:46:18;6.00;;;1.67;;
27305;SDS011;14792;50.886;6.468;2023-05-07T11:49:20;3.22;;;1.65;;
27305;SDS011;14792;50.886;6.468;2023-05-07T11:52:22;3.45;;;1.70;;
27305;SDS011;14792;50.886;6.468;2023-05-07T11:55:23;2.35;;;1.80;;
27305;SDS011;14792;50.886;6.468;2023-05-07T11:58:24;5.78;;;2.20;;
27305;SDS011;14792;50.886;6.468;2023-05-07T12:01:29;4.05;;;2.10;;
27305;SDS011;14792;50.886;6.468;2023-05-07T12:04:30;4.37;;;1.70;;
27305;SDS011;14792;50.886;6.468;2023-05-07T12:07:33;6.67;;;2.22;;
27305;SDS011;14792;50.886;6.468;2023-05-07T12:10:33;3.85;;;2.50;;
27305;SDS011;14792;50.886;6.468;2023-05-07T12:13:35;5.15;;;2.40;;
27305;SDS011;14792;50.886;6.468;2023-05-07T12:16:38;6.58;;;2.50;;
27305;SDS011;14792;50.886;6.468;2023-05-07T12:19:40;5.58;;;2.47;;
27305;SDS011;14792;50.886;6.468;2023-05-07T12:22:41;4.08;;;2.15;;
27305;SDS011;14792;50.886;6.468;2023-05-07T12:25:43;3.62;;;2.02;;
27305;SDS011;14792;50.886;6.468;2023-05-07T12:28:44;2.98;;;2.10;;
27305;SDS011;14792;50.886;6.468;2023-05-07T12:31:46;2.87;;;1.77;;
27305;SDS011;14792;50.886;6.468;2023-05-07T12:34:50;2.92;;;2.10;;
27305;SDS011;14792;50.886;6.468;2023-05-07T12:37:55;5.40;;;2.37;;
27305;SDS011;14792;50.886;6.468;2023-05-07T12:40:56;5.37;;;3.30;;
27305;SDS011;14792;50.886;6.468;2023-05-07T12:47:02;6.20;;;4.05;;
27305;SDS011;14792;50.886;6.468;2023-05-07T12:50:07;4.67;;;3.77;;
27305;SDS011;14792;50.886;6.468;2023-05-07T12:53:10;4.95;;;3.02;;
27305;SDS011;14792;50.886;6.468;2023-05-07T12:56:10;3.05;;;1.92;;
27305;SDS011;14792;50.886;6.468;2023-05-07T12:59:11;5.75;;;2.40;;
27305;SDS011;14792;50.886;6.468;2023-05-07T13:02:13;3.98;;;2.52;;
27305;SDS011;14792;50.886;6.468;2023-05-07T13:05:15;3.17;;;1.90;;
27305;SDS011;14792;50.886;6.468;2023-05-07T13:08:23;4.72;;;1.95;;
27305;SDS011;14792;50.886;6.468;2023-05-07T13:11:24;7.12;;;2.17;;
27305;SDS011;14792;50.886;6.468;2023-05-07T13:14:26;3.75;;;2.50;;
27305;SDS011;14792;50.886;6.468;2023-05-07T13:17:28;7.35;;;3.02;;
27305;SDS011;14792;50.886;6.468;2023-05-07T13:20:29;7.58;;;3.20;;
27305;SDS011;14792;50.886;6.468;2023-05-07T13:23:31;7.53;;;2.30;;
27305;SDS011;14792;50.886;6.468;2023-05-07T13:26:33;4.47;;;1.70;;
27305;SDS011;14792;50.886;6.468;2023-05-07T13:29:34;5.90;;;2.35;;
27305;SDS011;14792;50.886;6.468;2023-05-07T13:32:36;4.20;;;1.50;;
27305;SDS011;14792;50.886;6.468;2023-05-07T13:35:38;3.52;;;1.90;;
27305;SDS011;14792;50.886;6.468;2023-05-07T13:38:40;4.92;;;1.50;;
27305;SDS011;14792;50.886;6.468;2023-05-07T13:41:41;4.28;;;1.72;;
27305;SDS011;14792;50.886;6.468;2023-05-07T13:44:43;3.12;;;1.57;;
27305;SDS011;14792;50.886;6.468;2023-05-07T13:50:46;1.92;;;1.17;;
27305;SDS011;14792;50.886;6.468;2023-05-07T13:53:48;2.98;;;1.57;;
27305;SDS011;14792;50.886;6.468;2023-05-07T13:56:49;2.83;;;1.55;;
27305;SDS011;14792;50.886;6.468;2023-05-07T13:59:51;2.22;;;1.50;;
27305;SDS011;14792;50.886;6.468;2023-05-07T14:02:53;1.82;;;1.12;;
27305;SDS011;14792;50.886;6.468;2023-05-07T14:05:54;3.98;;;1.25;;
27305;SDS011;14792;50.886;6.468;2023-05-07T14:08:56;2.45;;;1.20;;
27305;SDS011;14792;50.886;6.468;2023-05-07T14:14:59;3.35;;;0.90;;
27305;SDS011;14792;50.886;6.468;2023-05-07T14:18:01;2.12;;;1.02;;
27305;SDS011;14792;50.886;6.468;2023-05-07T14:21:02;3.45;;;2.00;;
27305;SDS011;14792;50.886;6.468;2023-05-07T14:24:06;4.37;;;2.77;;
27305;SDS011;14792;50.886;6.468;2023-05-07T14:27:06;5.85;;;2.52;;
27305;SDS011;14792;50.886;6.468;2023-05-07T14:30:07;4.55;;;2.50;;
27305;SDS011;14792;50.886;6.468;2023-05-07T14:33:09;4.70;;;2.70;;
27305;SDS011;14792;50.886;6.468;2023-05-07T14:36:11;2.37;;;1.75;;
27305;SDS011;14792;50.886;6.468;2023-05-07T14:39:13;3.00;;;1.92;;
27305;SDS011;14792;50.886;6.468;2023-05-07T14:42:14;4.55;;;1.95;;
27305;SDS011;14792;50.886;6.468;2023-05-07T14:45:16;3.33;;;1.00;;
27305;SDS011;14792;50.886;6.468;2023-05-07T14:48:18;1.72;;;1.10;;
27305;SDS011;14792;50.886;6.468;2023-05-07T14:51:20;1.95;;;1.12;;
27305;SDS011;14792;50.886;6.468;2023-05-07T14:54:21;2.95;;;0.90;;
27305;SDS011;14792;50.886;6.468;2023-05-07T14:57:22;1.15;;;0.75;;
27305;SDS011;14792;50.886;6.468;2023-05-07T15:00:24;2.10;;;1.10;;
27305;SDS011;14792;50.886;6.468;2023-05-07T15:03:26;0.95;;;0.70;;
27305;SDS011;14792;50.886;6.468;2023-05-07T15:06:27;2.02;;;0.98;;
27305;SDS011;14792;50.886;6.468;2023-05-07T15:09:29;1.10;;;0.60;;
27305;SDS011;14792;50.886;6.468;2023-05-07T15:12:31;2.47;;;0.70;;
27305;SDS011;14792;50.886;6.468;2023-05-07T15:15:32;1.80;;;1.00;;
27305;SDS011;14792;50.886;6.468;2023-05-07T15:18:34;1.75;;;1.02;;
27305;SDS011;14792;50.886;6.468;2023-05-07T15:24:37;1.72;;;0.75;;
27305;SDS011;14792;50.886;6.468;2023-05-07T15:27:39;1.77;;;0.80;;
27305;SDS011;14792;50.886;6.468;2023-05-07T15:30:41;2.75;;;0.90;;
27305;SDS011;14792;50.886;6.468;2023-05-07T15:33:42;1.20;;;0.90;;
27305;SDS011;14792;50.886;6.468;2023-05-07T15:36:44;2.20;;;1.10;;
27305;SDS011;14792;50.886;6.468;2023-05-07T15:39:46;3.72;;;1.20;;
27305;SDS011;14792;50.886;6.468;2023-05-07T15:42:47;2.50;;;1.98;;
27305;SDS011;14792;50.886;6.468;2023-05-07T15:45:49;3.22;;;1.70;;
27305;SDS011;14792;50.886;6.468;2023-05-07T15:48:51;3.02;;;2.52;;
27305;SDS011;14792;50.886;6.468;2023-05-07T15:51:52;1.72;;;0.93;;
27305;SDS011;14792;50.886;6.468;2023-05-07T15:54:54;1.40;;;1.10;;
27305;SDS011;14792;50.886;6.468;2023-05-07T15:57:57;1.75;;;1.00;;
27305;SDS011;14792;50.886;6.468;2023-05-07T16:00:59;1.70;;;1.20;;
27305;SDS011;14792;50.886;6.468;2023-05-07T16:04:00;5.80;;;3.33;;
27305;SDS011;14792;50.886;6.468;2023-05-07T16:07:02;6.40;;;2.17;;
27305;SDS011;14792;50.886;6.468;2023-05-07T16:10:03;2.67;;;2.00;;
27305;SDS011;14792;50.886;6.468;2023-05-07T16:13:06;3.52;;;2.00;;
27305;SDS011;14792;50.886;6.468;2023-05-07T16:16:07;4.05;;;1.90;;
27305;SDS011;14792;50.886;6.468;2023-05-07T16:19:09;2.98;;;1.80;;
27305;SDS011;14792;50.886;6.468;2023-05-07T16:22:11;2.50;;;1.67;;
27305;SDS011;14792;50.886;6.468;2023-05-07T16:25:12;3.42;;;1.42;;
27305;SDS011;14792;50.886;6.468;2023-05-07T16:28:14;2.58;;;1.30;;
27305;SDS011;14792;50.886;6.468;2023-05-07T16:31:16;2.55;;;1.20;;
27305;SDS011;14792;50.886;6.468;2023-05-07T16:34:17;5.15;;;1.45;;
27305;SDS011;14792;50.886;6.468;2023-05-07T16:37:19;2.80;;;1.20;;
27305;SDS011;14792;50.886;6.468;2023-05-07T16:40:21;2.67;;;1.20;;
27305;SDS011;14792;50.886;6.468;2023-05-07T16:43:22;1.67;;;1.30;;
27305;SDS011;14792;50.886;6.468;2023-05-07T16:46:24;1.77;;;1.10;;
27305;SDS011;14792;50.886;6.468;2023-05-07T16:49:25;2.80;;;1.25;;
27305;SDS011;14792;50.886;6.468;2023-05-07T16:52:28;4.47;;;1.50;;
27305;SDS011;14792;50.886;6.468;2023-05-07T16:55:29;4.62;;;1.65;;
27305;SDS011;14792;50.886;6.468;2023-05-07T16:58:32;4.03;;;1.60;;
27305;SDS011;14792;50.886;6.468;2023-05-07T17:01:34;2.60;;;1.45;;
27305;SDS011;14792;50.886;6.468;2023-05-07T17:04:35;3.37;;;1.90;;
27305;SDS011;14792;50.886;6.468;2023-05-07T17:07:37;3.50;;;1.62;;
27305;SDS011;14792;50.886;6.468;2023-05-07T17:10:39;3.17;;;1.95;;
27305;SDS011;14792;50.886;6.468;2023-05-07T17:13:40;6.12;;;2.30;;
27305;SDS011;14792;50.886;6.468;2023-05-07T17:16:42;4.65;;;2.27;;
27305;SDS011;14792;50.886;6.468;2023-05-07T17:19:44;4.28;;;2.40;;
27305;SDS011;14792;50.886;6.468;2023-05-07T17:22:45;5.00;;;2.67;;
27305;SDS011;14792;50.886;6.468;2023-05-07T17:25:47;3.80;;;2.52;;
27305;SDS011;14792;50.886;6.468;2023-05-07T17:28:49;4.20;;;3.10;;
27305;SDS011;14792;50.886;6.468;2023-05-07T17:31:50;8.65;;;3.40;;
27305;SDS011;14792;50.886;6.468;2023-05-07T17:34:52;7.00;;;2.80;;
27305;SDS011;14792;50.886;6.468;2023-05-07T17:37:54;4.17;;;3.42;;
27305;SDS011;14792;50.886;6.468;2023-05-07T17:40:56;5.78;;;3.62;;
27305;SDS011;14792;50.886;6.468;2023-05-07T17:43:57;7.45;;;4.10;;
27305;SDS011;14792;50.886;6.468;2023-05-07T17:46:59;8.83;;;4.17;;
27305;SDS011;14792;50.886;6.468;2023-05-07T17:50:01;8.78;;;4.10;;
27305;SDS011;14792;50.886;6.468;2023-05-07T17:53:02;9.95;;;4.25;;
27305;SDS011;14792;50.886;6.468;2023-05-07T17:56:04;8.00;;;3.65;;
27305;SDS011;14792;50.886;6.468;2023-05-07T17:59:06;8.28;;;4.17;;
27305;SDS011;14792;50.886;6.468;2023-05-07T18:02:07;7.15;;;4.37;;
27305;SDS011;14792;50.886;6.468;2023-05-07T18:05:09;5.90;;;3.60;;
27305;SDS011;14792;50.886;6.468;2023-05-07T18:08:11;6.15;;;4.30;;
27305;SDS011;14792;50.886;6.468;2023-05-07T18:11:13;7.90;;;4.40;;
27305;SDS011;14792;50.886;6.468;2023-05-07T18:14:14;6.72;;;4.17;;
27305;SDS011;14792;50.886;6.468;2023-05-07T18:17:16;7.37;;;4.17;;
27305;SDS011;14792;50.886;6.468;2023-05-07T18:20:18;9.63;;;5.15;;
27305;SDS011;14792;50.886;6.468;2023-05-07T18:23:19;8.10;;;4.30;;
27305;SDS011;14792;50.886;6.468;2023-05-07T18:26:21;6.10;;;3.60;;
27305;SDS011;14792;50.886;6.468;2023-05-07T18:29:22;9.33;;;4.70;;
27305;SDS011;14792;50.886;6.468;2023-05-07T18:32:24;17.57;;;8.55;;
27305;SDS011;14792;50.886;6.468;2023-05-07T18:35:26;6.42;;;4.40;;